sensor_id;sensor_type;location;lat;lon;timestamp;P1;durP1;ratioP1;P2;durP2;ratioP2
34296;SDS011;20564;42.902;25.336;2023-05-27T00:02:06;2.90;;;1.33;;
34296;SDS011;20564;42.902;25.336;2023-05-27T00:04:33;4.17;;;1.73;;
34296;SDS011;20564;42.902;25.336;2023-05-27T00:07:00;5.72;;;2.80;;
34296;SDS011;20564;42.902;25.336;2023-05-27T00:09:27;3.95;;;1.65;;
34296;SDS011;20564;42.902;25.336;2023-05-27T00:11:54;3.92;;;1.80;;
34296;SDS011;20564;42.902;25.336;2023-05-27T00:14:21;5.47;;;2.20;;
34296;SDS011;20564;42.902;25.336;2023-05-27T00:16:48;4.67;;;2.00;;
34296;SDS011;20564;42.902;25.336;2023-05-27T00:19:16;4.28;;;1.80;;
34296;SDS011;20564;42.902;25.336;2023-05-27T00:21:46;5.18;;;1.80;;
34296;SDS011;20564;42.902;25.336;2023-05-27T00:24:13;4.50;;;1.95;;
34296;SDS011;20564;42.902;25.336;2023-05-27T00:26:40;4.67;;;1.73;;
34296;SDS011;20564;42.902;25.336;2023-05-27T00:29:07;5.27;;;1.80;;
34296;SDS011;20564;42.902;25.336;2023-05-27T00:31:34;4.75;;;1.70;;
34296;SDS011;20564;42.902;25.336;2023-05-27T00:34:02;5.07;;;1.88;;
34296;SDS011;20564;42.902;25.336;2023-05-27T00:36:29;4.10;;;1.60;;
34296;SDS011;20564;42.902;25.336;2023-05-27T00:38:58;4.75;;;1.50;;
34296;SDS011;20564;42.902;25.336;2023-05-27T00:41:26;4.68;;;1.45;;
34296;SDS011;20564;42.902;25.336;2023-05-27T00:43:55;4.13;;;1.35;;
34296;SDS011;20564;42.902;25.336;2023-05-27T00:46:23;5.78;;;1.90;;
34296;SDS011;20564;42.902;25.336;2023-05-27T00:48:50;3.10;;;1.30;;
34296;SDS011;20564;42.902;25.336;2023-05-27T00:53:45;4.60;;;1.48;;
34296;SDS011;20564;42.902;25.336;2023-05-27T00:56:13;2.65;;;1.20;;
34296;SDS011;20564;42.902;25.336;2023-05-27T00:58:42;4.80;;;1.88;;
34296;SDS011;20564;42.902;25.336;2023-05-27T01:01:10;4.03;;;1.60;;
34296;SDS011;20564;42.902;25.336;2023-05-27T01:03:38;7.72;;;1.50;;
34296;SDS011;20564;42.902;25.336;2023-05-27T01:06:19;3.65;;;1.73;;
34296;SDS011;20564;42.902;25.336;2023-05-27T01:09:04;4.15;;;1.63;;
34296;SDS011;20564;42.902;25.336;2023-05-27T01:11:34;3.33;;;1.33;;
34296;SDS011;20564;42.902;25.336;2023-05-27T01:14:12;3.45;;;1.45;;
34296;SDS011;20564;42.902;25.336;2023-05-27T01:16:41;3.78;;;1.45;;
34296;SDS011;20564;42.902;25.336;2023-05-27T01:19:15;5.95;;;1.60;;
34296;SDS011;20564;42.902;25.336;2023-05-27T01:21:52;3.72;;;1.35;;
34296;SDS011;20564;42.902;25.336;2023-05-27T01:24:20;5.50;;;1.77;;
34296;SDS011;20564;42.902;25.336;2023-05-27T01:26:48;3.50;;;1.70;;
34296;SDS011;20564;42.902;25.336;2023-05-27T01:29:16;5.70;;;1.90;;
34296;SDS011;20564;42.902;25.336;2023-05-27T01:31:51;3.78;;;1.58;;
34296;SDS011;20564;42.902;25.336;2023-05-27T01:34:33;6.18;;;1.70;;
34296;SDS011;20564;42.902;25.336;2023-05-27T01:37:04;5.35;;;1.95;;
34296;SDS011;20564;42.902;25.336;2023-05-27T01:39:36;5.90;;;2.10;;
34296;SDS011;20564;42.902;25.336;2023-05-27T01:42:04;5.38;;;1.77;;
34296;SDS011;20564;42.902;25.336;2023-05-27T01:44:32;3.63;;;1.60;;
34296;SDS011;20564;42.902;25.336;2023-05-27T01:47:00;3.55;;;1.48;;
34296;SDS011;20564;42.902;25.336;2023-05-27T01:49:29;4.25;;;1.35;;
34296;SDS011;20564;42.902;25.336;2023-05-27T01:51:57;4.13;;;1.80;;
34296;SDS011;20564;42.902;25.336;2023-05-27T01:54:24;5.05;;;1.90;;
34296;SDS011;20564;42.902;25.336;2023-05-27T01:56:51;4.40;;;1.88;;
34296;SDS011;20564;42.902;25.336;2023-05-27T01:59:18;5.25;;;1.98;;
34296;SDS011;20564;42.902;25.336;2023-05-27T02:01:46;4.93;;;1.65;;
34296;SDS011;20564;42.902;25.336;2023-05-27T02:04:14;5.18;;;1.52;;
34296;SDS011;20564;42.902;25.336;2023-05-27T02:06:41;4.55;;;2.00;;
34296;SDS011;20564;42.902;25.336;2023-05-27T02:09:08;5.38;;;2.03;;
34296;SDS011;20564;42.902;25.336;2023-05-27T02:11:38;6.15;;;2.38;;
34296;SDS011;20564;42.902;25.336;2023-05-27T02:14:05;6.03;;;2.15;;
34296;SDS011;20564;42.902;25.336;2023-05-27T02:16:33;5.68;;;1.90;;
34296;SDS011;20564;42.902;25.336;2023-05-27T02:19:01;4.93;;;1.90;;
34296;SDS011;20564;42.902;25.336;2023-05-27T02:21:28;6.20;;;1.63;;
34296;SDS011;20564;42.902;25.336;2023-05-27T02:23:56;6.10;;;1.67;;
34296;SDS011;20564;42.902;25.336;2023-05-27T02:26:24;4.22;;;1.50;;
34296;SDS011;20564;42.902;25.336;2023-05-27T02:31:18;3.75;;;1.35;;
34296;SDS011;20564;42.902;25.336;2023-05-27T02:33:45;4.82;;;1.63;;
34296;SDS011;20564;42.902;25.336;2023-05-27T02:36:13;4.30;;;1.80;;
34296;SDS011;20564;42.902;25.336;2023-05-27T02:38:40;3.58;;;1.40;;
34296;SDS011;20564;42.902;25.336;2023-05-27T02:41:07;3.47;;;1.60;;
34296;SDS011;20564;42.902;25.336;2023-05-27T02:43:35;5.00;;;1.40;;
34296;SDS011;20564;42.902;25.336;2023-05-27T02:46:03;5.05;;;1.63;;
34296;SDS011;20564;42.902;25.336;2023-05-27T02:48:30;3.63;;;1.38;;
34296;SDS011;20564;42.902;25.336;2023-05-27T02:50:57;3.40;;;1.48;;
34296;SDS011;20564;42.902;25.336;2023-05-27T02:53:24;5.07;;;1.48;;
34296;SDS011;20564;42.902;25.336;2023-05-27T02:55:51;4.00;;;1.48;;
34296;SDS011;20564;42.902;25.336;2023-05-27T03:00:46;4.05;;;1.25;;
34296;SDS011;20564;42.902;25.336;2023-05-27T03:03:13;6.15;;;1.77;;
34296;SDS011;20564;42.902;25.336;2023-05-27T03:05:40;6.23;;;1.77;;
34296;SDS011;20564;42.902;25.336;2023-05-27T03:08:07;3.50;;;1.27;;
34296;SDS011;20564;42.902;25.336;2023-05-27T03:10:33;2.97;;;1.42;;
34296;SDS011;20564;42.902;25.336;2023-05-27T03:13:01;4.73;;;1.53;;
34296;SDS011;20564;42.902;25.336;2023-05-27T03:15:28;2.85;;;1.40;;
34296;SDS011;20564;42.902;25.336;2023-05-27T03:17:56;4.55;;;1.58;;
34296;SDS011;20564;42.902;25.336;2023-05-27T03:20:24;4.55;;;1.52;;
34296;SDS011;20564;42.902;25.336;2023-05-27T03:22:51;3.95;;;1.52;;
34296;SDS011;20564;42.902;25.336;2023-05-27T03:25:18;4.38;;;1.70;;
34296;SDS011;20564;42.902;25.336;2023-05-27T03:27:45;6.17;;;2.03;;
34296;SDS011;20564;42.902;25.336;2023-05-27T03:30:12;4.67;;;1.80;;
34296;SDS011;20564;42.902;25.336;2023-05-27T03:32:39;3.83;;;1.40;;
34296;SDS011;20564;42.902;25.336;2023-05-27T03:35:08;4.80;;;1.85;;
34296;SDS011;20564;42.902;25.336;2023-05-27T03:37:45;4.30;;;1.75;;
34296;SDS011;20564;42.902;25.336;2023-05-27T03:40:12;4.43;;;1.85;;
34296;SDS011;20564;42.902;25.336;2023-05-27T03:42:39;5.77;;;2.20;;
34296;SDS011;20564;42.902;25.336;2023-05-27T03:45:06;5.47;;;2.20;;
34296;SDS011;20564;42.902;25.336;2023-05-27T03:47:34;5.00;;;1.80;;
34296;SDS011;20564;42.902;25.336;2023-05-27T03:52:29;5.28;;;1.90;;
34296;SDS011;20564;42.902;25.336;2023-05-27T03:54:57;5.13;;;2.03;;
34296;SDS011;20564;42.902;25.336;2023-05-27T03:57:24;6.53;;;2.08;;
34296;SDS011;20564;42.902;25.336;2023-05-27T03:59:51;5.82;;;1.92;;
34296;SDS011;20564;42.902;25.336;2023-05-27T04:02:18;8.35;;;2.88;;
34296;SDS011;20564;42.902;25.336;2023-05-27T04:04:45;6.37;;;2.50;;
34296;SDS011;20564;42.902;25.336;2023-05-27T04:07:12;6.55;;;2.20;;
34296;SDS011;20564;42.902;25.336;2023-05-27T04:09:39;6.10;;;2.20;;
34296;SDS011;20564;42.902;25.336;2023-05-27T04:12:07;6.13;;;2.17;;
34296;SDS011;20564;42.902;25.336;2023-05-27T04:14:34;7.82;;;2.45;;
34296;SDS011;20564;42.902;25.336;2023-05-27T04:17:01;5.33;;;2.20;;
34296;SDS011;20564;42.902;25.336;2023-05-27T04:19:29;4.85;;;1.90;;
34296;SDS011;20564;42.902;25.336;2023-05-27T04:21:59;5.15;;;2.22;;
34296;SDS011;20564;42.902;25.336;2023-05-27T04:24:26;5.43;;;2.38;;
34296;SDS011;20564;42.902;25.336;2023-05-27T04:26:53;5.90;;;2.00;;
34296;SDS011;20564;42.902;25.336;2023-05-27T04:29:20;6.07;;;1.90;;
34296;SDS011;20564;42.902;25.336;2023-05-27T04:31:49;5.30;;;2.05;;
34296;SDS011;20564;42.902;25.336;2023-05-27T04:34:17;5.13;;;2.03;;
34296;SDS011;20564;42.902;25.336;2023-05-27T04:36:44;6.47;;;2.25;;
34296;SDS011;20564;42.902;25.336;2023-05-27T04:39:16;6.70;;;1.88;;
34296;SDS011;20564;42.902;25.336;2023-05-27T04:41:43;6.47;;;2.38;;
34296;SDS011;20564;42.902;25.336;2023-05-27T04:44:11;4.97;;;2.13;;
34296;SDS011;20564;42.902;25.336;2023-05-27T04:46:38;5.20;;;2.38;;
34296;SDS011;20564;42.902;25.336;2023-05-27T04:49:05;6.55;;;2.13;;
34296;SDS011;20564;42.902;25.336;2023-05-27T04:51:32;5.33;;;1.97;;
34296;SDS011;20564;42.902;25.336;2023-05-27T04:54:02;4.15;;;1.70;;
34296;SDS011;20564;42.902;25.336;2023-05-27T04:56:29;5.55;;;1.88;;
34296;SDS011;20564;42.902;25.336;2023-05-27T04:58:56;4.80;;;2.03;;
34296;SDS011;20564;42.902;25.336;2023-05-27T05:01:25;5.13;;;2.17;;
34296;SDS011;20564;42.902;25.336;2023-05-27T05:03:54;4.82;;;1.98;;
34296;SDS011;20564;42.902;25.336;2023-05-27T05:06:39;3.67;;;1.83;;
34296;SDS011;20564;42.902;25.336;2023-05-27T05:09:06;4.05;;;1.80;;
34296;SDS011;20564;42.902;25.336;2023-05-27T05:11:38;5.13;;;2.15;;
34296;SDS011;20564;42.902;25.336;2023-05-27T05:14:05;5.45;;;2.10;;
34296;SDS011;20564;42.902;25.336;2023-05-27T05:16:32;3.85;;;1.77;;
34296;SDS011;20564;42.902;25.336;2023-05-27T05:18:59;5.68;;;2.00;;
34296;SDS011;20564;42.902;25.336;2023-05-27T05:21:26;5.05;;;1.88;;
34296;SDS011;20564;42.902;25.336;2023-05-27T05:23:53;4.85;;;1.75;;
34296;SDS011;20564;42.902;25.336;2023-05-27T05:26:20;5.00;;;1.97;;
34296;SDS011;20564;42.902;25.336;2023-05-27T05:28:47;6.32;;;2.20;;
34296;SDS011;20564;42.902;25.336;2023-05-27T05:31:14;7.68;;;2.50;;
34296;SDS011;20564;42.902;25.336;2023-05-27T05:33:41;7.10;;;2.40;;
34296;SDS011;20564;42.902;25.336;2023-05-27T05:36:08;5.72;;;2.20;;
34296;SDS011;20564;42.902;25.336;2023-05-27T05:38:35;4.95;;;2.00;;
34296;SDS011;20564;42.902;25.336;2023-05-27T05:41:02;6.17;;;2.37;;
34296;SDS011;20564;42.902;25.336;2023-05-27T05:43:31;5.78;;;1.98;;
34296;SDS011;20564;42.902;25.336;2023-05-27T05:45:57;5.38;;;2.25;;
34296;SDS011;20564;42.902;25.336;2023-05-27T05:48:26;4.05;;;1.65;;
34296;SDS011;20564;42.902;25.336;2023-05-27T05:50:53;5.32;;;1.90;;
34296;SDS011;20564;42.902;25.336;2023-05-27T05:53:20;4.13;;;1.90;;
34296;SDS011;20564;42.902;25.336;2023-05-27T05:55:47;5.43;;;1.98;;
34296;SDS011;20564;42.902;25.336;2023-05-27T05:58:14;5.13;;;1.80;;
34296;SDS011;20564;42.902;25.336;2023-05-27T06:00:41;3.55;;;1.60;;
34296;SDS011;20564;42.902;25.336;2023-05-27T06:03:08;4.80;;;1.53;;
34296;SDS011;20564;42.902;25.336;2023-05-27T06:05:36;3.10;;;1.60;;
34296;SDS011;20564;42.902;25.336;2023-05-27T06:08:03;2.78;;;1.48;;
34296;SDS011;20564;42.902;25.336;2023-05-27T06:10:31;3.75;;;1.63;;
34296;SDS011;20564;42.902;25.336;2023-05-27T06:12:58;4.47;;;1.73;;
34296;SDS011;20564;42.902;25.336;2023-05-27T06:15:25;4.40;;;1.52;;
34296;SDS011;20564;42.902;25.336;2023-05-27T06:17:53;4.53;;;1.70;;
34296;SDS011;20564;42.902;25.336;2023-05-27T06:20:20;3.45;;;1.48;;
34296;SDS011;20564;42.902;25.336;2023-05-27T06:22:49;4.13;;;1.48;;
34296;SDS011;20564;42.902;25.336;2023-05-27T06:25:16;3.90;;;1.60;;
34296;SDS011;20564;42.902;25.336;2023-05-27T06:27:46;4.38;;;1.73;;
34296;SDS011;20564;42.902;25.336;2023-05-27T06:30:13;4.93;;;1.77;;
34296;SDS011;20564;42.902;25.336;2023-05-27T06:32:40;5.57;;;1.50;;
34296;SDS011;20564;42.902;25.336;2023-05-27T06:35:07;4.22;;;1.75;;
34296;SDS011;20564;42.902;25.336;2023-05-27T06:37:34;2.67;;;1.30;;
34296;SDS011;20564;42.902;25.336;2023-05-27T06:40:01;2.60;;;1.48;;
34296;SDS011;20564;42.902;25.336;2023-05-27T06:42:30;6.30;;;2.00;;
34296;SDS011;20564;42.902;25.336;2023-05-27T06:44:57;4.85;;;1.55;;
34296;SDS011;20564;42.902;25.336;2023-05-27T06:47:24;4.18;;;1.48;;
34296;SDS011;20564;42.902;25.336;2023-05-27T06:49:51;4.90;;;1.65;;
34296;SDS011;20564;42.902;25.336;2023-05-27T06:52:19;3.92;;;1.63;;
34296;SDS011;20564;42.902;25.336;2023-05-27T06:54:48;3.00;;;1.50;;
34296;SDS011;20564;42.902;25.336;2023-05-27T06:57:15;4.07;;;1.63;;
34296;SDS011;20564;42.902;25.336;2023-05-27T06:59:45;5.63;;;1.35;;
34296;SDS011;20564;42.902;25.336;2023-05-27T07:02:12;5.55;;;1.63;;
34296;SDS011;20564;42.902;25.336;2023-05-27T07:04:39;5.00;;;1.38;;
34296;SDS011;20564;42.902;25.336;2023-05-27T07:07:07;5.03;;;1.73;;
34296;SDS011;20564;42.902;25.336;2023-05-27T07:09:34;4.13;;;1.83;;
34296;SDS011;20564;42.902;25.336;2023-05-27T07:12:01;3.78;;;1.65;;
34296;SDS011;20564;42.902;25.336;2023-05-27T07:14:28;4.22;;;1.92;;
34296;SDS011;20564;42.902;25.336;2023-05-27T07:16:55;5.47;;;1.77;;
34296;SDS011;20564;42.902;25.336;2023-05-27T07:19:25;2.80;;;1.50;;
34296;SDS011;20564;42.902;25.336;2023-05-27T07:21:53;4.35;;;1.75;;
34296;SDS011;20564;42.902;25.336;2023-05-27T07:24:26;2.80;;;1.33;;
34296;SDS011;20564;42.902;25.336;2023-05-27T07:26:53;3.35;;;1.58;;
34296;SDS011;20564;42.902;25.336;2023-05-27T07:29:24;4.55;;;1.65;;
34296;SDS011;20564;42.902;25.336;2023-05-27T07:31:51;3.67;;;1.50;;
34296;SDS011;20564;42.902;25.336;2023-05-27T07:34:18;2.78;;;1.33;;
34296;SDS011;20564;42.902;25.336;2023-05-27T07:36:47;4.25;;;1.55;;
34296;SDS011;20564;42.902;25.336;2023-05-27T07:39:18;4.35;;;1.52;;
34296;SDS011;20564;42.902;25.336;2023-05-27T07:41:44;3.05;;;1.48;;
34296;SDS011;20564;42.902;25.336;2023-05-27T07:44:11;3.20;;;1.30;;
34296;SDS011;20564;42.902;25.336;2023-05-27T07:46:38;4.33;;;1.60;;
34296;SDS011;20564;42.902;25.336;2023-05-27T07:49:05;4.78;;;1.80;;
34296;SDS011;20564;42.902;25.336;2023-05-27T07:51:32;4.70;;;1.58;;
34296;SDS011;20564;42.902;25.336;2023-05-27T07:53:59;4.03;;;1.50;;
34296;SDS011;20564;42.902;25.336;2023-05-27T07:56:26;4.77;;;1.70;;
34296;SDS011;20564;42.902;25.336;2023-05-27T07:58:53;6.00;;;1.83;;
34296;SDS011;20564;42.902;25.336;2023-05-27T08:01:20;4.13;;;1.70;;
34296;SDS011;20564;42.902;25.336;2023-05-27T08:03:47;3.22;;;1.60;;
34296;SDS011;20564;42.902;25.336;2023-05-27T08:06:15;3.63;;;1.58;;
34296;SDS011;20564;42.902;25.336;2023-05-27T08:08:48;3.45;;;1.60;;
34296;SDS011;20564;42.902;25.336;2023-05-27T08:11:16;3.70;;;1.70;;
34296;SDS011;20564;42.902;25.336;2023-05-27T08:16:10;3.13;;;1.27;;
34296;SDS011;20564;42.902;25.336;2023-05-27T08:18:37;3.85;;;1.40;;
34296;SDS011;20564;42.902;25.336;2023-05-27T08:21:05;4.57;;;1.45;;
34296;SDS011;20564;42.902;25.336;2023-05-27T08:23:32;2.95;;;1.50;;
34296;SDS011;20564;42.902;25.336;2023-05-27T08:25:59;3.70;;;1.50;;
34296;SDS011;20564;42.902;25.336;2023-05-27T08:28:26;3.90;;;1.70;;
34296;SDS011;20564;42.902;25.336;2023-05-27T08:30:53;2.75;;;1.10;;
34296;SDS011;20564;42.902;25.336;2023-05-27T08:33:20;3.28;;;1.40;;
34296;SDS011;20564;42.902;25.336;2023-05-27T08:35:49;3.65;;;1.63;;
34296;SDS011;20564;42.902;25.336;2023-05-27T08:38:16;4.47;;;1.27;;
34296;SDS011;20564;42.902;25.336;2023-05-27T08:40:43;2.63;;;1.27;;
34296;SDS011;20564;42.902;25.336;2023-05-27T08:43:10;3.40;;;1.30;;
34296;SDS011;20564;42.902;25.336;2023-05-27T08:45:37;3.75;;;1.20;;
34296;SDS011;20564;42.902;25.336;2023-05-27T08:48:08;3.03;;;1.27;;
34296;SDS011;20564;42.902;25.336;2023-05-27T08:50:35;3.30;;;1.35;;
34296;SDS011;20564;42.902;25.336;2023-05-27T08:53:02;3.47;;;1.20;;
34296;SDS011;20564;42.902;25.336;2023-05-27T08:55:30;3.60;;;1.33;;
34296;SDS011;20564;42.902;25.336;2023-05-27T08:57:58;2.55;;;1.15;;
34296;SDS011;20564;42.902;25.336;2023-05-27T09:00:28;2.92;;;1.00;;
34296;SDS011;20564;42.902;25.336;2023-05-27T09:02:55;2.97;;;1.15;;
34296;SDS011;20564;42.902;25.336;2023-05-27T09:05:25;3.38;;;1.40;;
34296;SDS011;20564;42.902;25.336;2023-05-27T09:10:22;4.35;;;1.15;;
34296;SDS011;20564;42.902;25.336;2023-05-27T09:12:50;2.45;;;1.20;;
34296;SDS011;20564;42.902;25.336;2023-05-27T09:17:45;3.13;;;1.20;;
34296;SDS011;20564;42.902;25.336;2023-05-27T09:20:13;3.75;;;1.30;;
34296;SDS011;20564;42.902;25.336;2023-05-27T09:22:40;3.00;;;1.25;;
34296;SDS011;20564;42.902;25.336;2023-05-27T09:25:07;4.10;;;1.58;;
34296;SDS011;20564;42.902;25.336;2023-05-27T09:27:36;4.28;;;1.50;;
34296;SDS011;20564;42.902;25.336;2023-05-27T09:30:07;3.45;;;1.33;;
34296;SDS011;20564;42.902;25.336;2023-05-27T09:32:36;3.30;;;1.80;;
34296;SDS011;20564;42.902;25.336;2023-05-27T09:35:05;3.35;;;1.38;;
34296;SDS011;20564;42.902;25.336;2023-05-27T09:37:34;3.25;;;1.38;;
34296;SDS011;20564;42.902;25.336;2023-05-27T09:40:07;2.25;;;1.17;;
34296;SDS011;20564;42.902;25.336;2023-05-27T09:42:46;3.03;;;1.30;;
34296;SDS011;20564;42.902;25.336;2023-05-27T09:45:15;3.15;;;1.10;;
34296;SDS011;20564;42.902;25.336;2023-05-27T09:47:48;3.13;;;1.35;;
34296;SDS011;20564;42.902;25.336;2023-05-27T09:50:18;3.17;;;1.30;;
34296;SDS011;20564;42.902;25.336;2023-05-27T09:52:47;6.35;;;1.50;;
34296;SDS011;20564;42.902;25.336;2023-05-27T09:55:30;2.65;;;1.30;;
34296;SDS011;20564;42.902;25.336;2023-05-27T09:57:58;6.00;;;1.50;;
34296;SDS011;20564;42.902;25.336;2023-05-27T10:00:27;4.57;;;1.60;;
34296;SDS011;20564;42.902;25.336;2023-05-27T10:02:56;4.00;;;1.73;;
34296;SDS011;20564;42.902;25.336;2023-05-27T10:05:26;3.97;;;1.65;;
34296;SDS011;20564;42.902;25.336;2023-05-27T10:07:53;7.57;;;1.48;;
34296;SDS011;20564;42.902;25.336;2023-05-27T10:10:24;5.03;;;1.40;;
34296;SDS011;20564;42.902;25.336;2023-05-27T10:12:51;3.88;;;1.55;;
34296;SDS011;20564;42.902;25.336;2023-05-27T10:15:30;3.80;;;1.73;;
34296;SDS011;20564;42.902;25.336;2023-05-27T10:18:05;5.60;;;1.65;;
34296;SDS011;20564;42.902;25.336;2023-05-27T10:20:33;4.05;;;1.40;;
34296;SDS011;20564;42.902;25.336;2023-05-27T10:23:10;3.65;;;1.48;;
34296;SDS011;20564;42.902;25.336;2023-05-27T10:25:38;2.67;;;1.15;;
34296;SDS011;20564;42.902;25.336;2023-05-27T10:28:07;4.20;;;1.30;;
34296;SDS011;20564;42.902;25.336;2023-05-27T10:30:43;3.95;;;1.60;;
34296;SDS011;20564;42.902;25.336;2023-05-27T10:33:12;2.78;;;1.20;;
34296;SDS011;20564;42.902;25.336;2023-05-27T10:35:40;4.03;;;1.65;;
34296;SDS011;20564;42.902;25.336;2023-05-27T10:38:14;5.80;;;1.77;;
34296;SDS011;20564;42.902;25.336;2023-05-27T10:40:43;4.30;;;1.63;;
34296;SDS011;20564;42.902;25.336;2023-05-27T10:43:15;3.63;;;1.40;;
34296;SDS011;20564;42.902;25.336;2023-05-27T10:45:43;5.38;;;1.35;;
34296;SDS011;20564;42.902;25.336;2023-05-27T10:48:18;3.38;;;1.48;;
34296;SDS011;20564;42.902;25.336;2023-05-27T10:50:50;4.90;;;1.77;;
34296;SDS011;20564;42.902;25.336;2023-05-27T10:53:24;5.88;;;2.00;;
34296;SDS011;20564;42.902;25.336;2023-05-27T10:55:53;5.40;;;2.10;;
34296;SDS011;20564;42.902;25.336;2023-05-27T10:58:21;5.35;;;2.00;;
34296;SDS011;20564;42.902;25.336;2023-05-27T11:00:48;5.65;;;2.10;;
34296;SDS011;20564;42.902;25.336;2023-05-27T11:05:58;6.15;;;2.33;;
34296;SDS011;20564;42.902;25.336;2023-05-27T11:08:33;5.85;;;2.35;;
34296;SDS011;20564;42.902;25.336;2023-05-27T11:11:01;7.20;;;2.35;;
34296;SDS011;20564;42.902;25.336;2023-05-27T11:13:30;6.38;;;2.17;;
34296;SDS011;20564;42.902;25.336;2023-05-27T11:16:13;4.68;;;1.90;;
34296;SDS011;20564;42.902;25.336;2023-05-27T11:21:14;6.40;;;2.25;;
34296;SDS011;20564;42.902;25.336;2023-05-27T11:23:46;9.73;;;3.17;;
34296;SDS011;20564;42.902;25.336;2023-05-27T11:26:16;10.13;;;3.05;;
34296;SDS011;20564;42.902;25.336;2023-05-27T11:28:50;4.95;;;1.88;;
34296;SDS011;20564;42.902;25.336;2023-05-27T11:31:21;7.47;;;2.13;;
34296;SDS011;20564;42.902;25.336;2023-05-27T11:33:54;6.47;;;2.10;;
34296;SDS011;20564;42.902;25.336;2023-05-27T11:36:22;6.25;;;2.28;;
34296;SDS011;20564;42.902;25.336;2023-05-27T11:38:54;4.32;;;1.90;;
34296;SDS011;20564;42.902;25.336;2023-05-27T11:41:28;5.05;;;1.92;;
34296;SDS011;20564;42.902;25.336;2023-05-27T11:43:57;5.50;;;1.98;;
34296;SDS011;20564;42.902;25.336;2023-05-27T11:46:35;5.68;;;2.10;;
34296;SDS011;20564;42.902;25.336;2023-05-27T11:49:08;5.90;;;1.90;;
34296;SDS011;20564;42.902;25.336;2023-05-27T11:51:40;4.20;;;1.80;;
34296;SDS011;20564;42.902;25.336;2023-05-27T11:54:29;4.28;;;1.83;;
34296;SDS011;20564;42.902;25.336;2023-05-27T11:56:56;4.97;;;1.92;;
34296;SDS011;20564;42.902;25.336;2023-05-27T11:59:25;4.03;;;1.85;;
34296;SDS011;20564;42.902;25.336;2023-05-27T12:01:52;5.15;;;2.03;;
34296;SDS011;20564;42.902;25.336;2023-05-27T12:04:20;5.57;;;2.20;;
34296;SDS011;20564;42.902;25.336;2023-05-27T12:06:48;3.50;;;1.75;;
34296;SDS011;20564;42.902;25.336;2023-05-27T12:09:15;7.25;;;2.22;;
34296;SDS011;20564;42.902;25.336;2023-05-27T12:11:42;3.53;;;1.77;;
34296;SDS011;20564;42.902;25.336;2023-05-27T12:14:09;5.03;;;2.10;;
34296;SDS011;20564;42.902;25.336;2023-05-27T12:16:36;4.93;;;2.05;;
34296;SDS011;20564;42.902;25.336;2023-05-27T12:19:03;5.05;;;1.90;;
34296;SDS011;20564;42.902;25.336;2023-05-27T12:21:30;4.38;;;2.20;;
34296;SDS011;20564;42.902;25.336;2023-05-27T12:23:57;5.53;;;2.30;;
34296;SDS011;20564;42.902;25.336;2023-05-27T12:28:54;5.30;;;2.15;;
34296;SDS011;20564;42.902;25.336;2023-05-27T12:31:22;7.47;;;2.30;;
34296;SDS011;20564;42.902;25.336;2023-05-27T12:33:51;4.78;;;2.25;;
34296;SDS011;20564;42.902;25.336;2023-05-27T12:36:18;5.88;;;2.28;;
34296;SDS011;20564;42.902;25.336;2023-05-27T12:38:46;6.93;;;2.75;;
34296;SDS011;20564;42.902;25.336;2023-05-27T12:41:23;15.68;;;3.95;;
34296;SDS011;20564;42.902;25.336;2023-05-27T12:43:50;8.52;;;2.70;;
34296;SDS011;20564;42.902;25.336;2023-05-27T12:46:17;7.57;;;2.55;;
34296;SDS011;20564;42.902;25.336;2023-05-27T12:48:44;9.82;;;2.78;;
34296;SDS011;20564;42.902;25.336;2023-05-27T12:51:11;17.38;;;3.85;;
34296;SDS011;20564;42.902;25.336;2023-05-27T12:53:40;9.18;;;2.70;;
34296;SDS011;20564;42.902;25.336;2023-05-27T12:56:10;5.47;;;2.40;;
34296;SDS011;20564;42.902;25.336;2023-05-27T12:58:37;5.85;;;2.10;;
34296;SDS011;20564;42.902;25.336;2023-05-27T13:01:04;5.43;;;2.20;;
34296;SDS011;20564;42.902;25.336;2023-05-27T13:03:32;6.10;;;2.40;;
34296;SDS011;20564;42.902;25.336;2023-05-27T13:06:00;6.53;;;2.65;;
34296;SDS011;20564;42.902;25.336;2023-05-27T13:08:28;7.03;;;2.80;;
34296;SDS011;20564;42.902;25.336;2023-05-27T13:10:55;6.47;;;2.47;;
34296;SDS011;20564;42.902;25.336;2023-05-27T13:13:23;6.93;;;2.80;;
34296;SDS011;20564;42.902;25.336;2023-05-27T13:18:18;4.88;;;2.30;;
34296;SDS011;20564;42.902;25.336;2023-05-27T13:20:45;5.07;;;2.10;;
34296;SDS011;20564;42.902;25.336;2023-05-27T13:23:12;5.20;;;2.15;;
34296;SDS011;20564;42.902;25.336;2023-05-27T13:25:39;5.35;;;2.25;;
34296;SDS011;20564;42.902;25.336;2023-05-27T13:28:07;5.47;;;2.30;;
34296;SDS011;20564;42.902;25.336;2023-05-27T13:30:33;5.10;;;2.40;;
34296;SDS011;20564;42.902;25.336;2023-05-27T13:33:03;6.15;;;2.40;;
34296;SDS011;20564;42.902;25.336;2023-05-27T13:35:37;5.30;;;2.55;;
34296;SDS011;20564;42.902;25.336;2023-05-27T13:38:04;5.40;;;2.50;;
34296;SDS011;20564;42.902;25.336;2023-05-27T13:40:37;6.25;;;2.47;;
34296;SDS011;20564;42.902;25.336;2023-05-27T13:43:03;6.95;;;2.60;;
34296;SDS011;20564;42.902;25.336;2023-05-27T13:45:30;6.75;;;2.85;;
34296;SDS011;20564;42.902;25.336;2023-05-27T13:47:57;5.88;;;2.78;;
34296;SDS011;20564;42.902;25.336;2023-05-27T13:50:25;7.40;;;2.40;;
34296;SDS011;20564;42.902;25.336;2023-05-27T13:52:54;6.68;;;3.15;;
34296;SDS011;20564;42.902;25.336;2023-05-27T13:55:21;7.07;;;2.53;;
34296;SDS011;20564;42.902;25.336;2023-05-27T13:57:49;6.22;;;2.35;;
34296;SDS011;20564;42.902;25.336;2023-05-27T14:00:17;10.90;;;2.80;;
34296;SDS011;20564;42.902;25.336;2023-05-27T14:05:11;5.07;;;2.33;;
34296;SDS011;20564;42.902;25.336;2023-05-27T14:07:39;4.82;;;2.30;;
34296;SDS011;20564;42.902;25.336;2023-05-27T14:10:07;7.18;;;2.75;;
34296;SDS011;20564;42.902;25.336;2023-05-27T14:12:35;5.85;;;2.60;;
34296;SDS011;20564;42.902;25.336;2023-05-27T14:15:03;6.00;;;2.50;;
34296;SDS011;20564;42.902;25.336;2023-05-27T14:17:30;8.38;;;2.75;;
34296;SDS011;20564;42.902;25.336;2023-05-27T14:19:58;6.43;;;2.63;;
34296;SDS011;20564;42.902;25.336;2023-05-27T14:22:25;8.52;;;2.92;;
34296;SDS011;20564;42.902;25.336;2023-05-27T14:24:52;7.75;;;2.83;;
34296;SDS011;20564;42.902;25.336;2023-05-27T14:27:19;5.97;;;2.42;;
34296;SDS011;20564;42.902;25.336;2023-05-27T14:29:46;6.43;;;2.92;;
34296;SDS011;20564;42.902;25.336;2023-05-27T14:32:13;7.25;;;3.10;;
34296;SDS011;20564;42.902;25.336;2023-05-27T14:34:41;6.90;;;2.63;;
34296;SDS011;20564;42.902;25.336;2023-05-27T14:37:07;5.63;;;2.67;;
34296;SDS011;20564;42.902;25.336;2023-05-27T14:39:35;8.20;;;2.70;;
34296;SDS011;20564;42.902;25.336;2023-05-27T14:42:05;6.53;;;3.08;;
34296;SDS011;20564;42.902;25.336;2023-05-27T14:44:34;8.23;;;3.38;;
34296;SDS011;20564;42.902;25.336;2023-05-27T14:47:04;6.38;;;2.80;;
34296;SDS011;20564;42.902;25.336;2023-05-27T14:49:34;6.40;;;2.47;;
34296;SDS011;20564;42.902;25.336;2023-05-27T14:52:02;6.63;;;2.90;;
34296;SDS011;20564;42.902;25.336;2023-05-27T14:54:32;6.03;;;2.78;;
34296;SDS011;20564;42.902;25.336;2023-05-27T14:57:00;5.57;;;2.80;;
34296;SDS011;20564;42.902;25.336;2023-05-27T14:59:27;4.95;;;2.63;;
34296;SDS011;20564;42.902;25.336;2023-05-27T15:01:55;6.25;;;2.70;;
34296;SDS011;20564;42.902;25.336;2023-05-27T15:04:22;7.68;;;2.53;;
34296;SDS011;20564;42.902;25.336;2023-05-27T15:06:50;5.93;;;2.75;;
34296;SDS011;20564;42.902;25.336;2023-05-27T15:11:45;7.38;;;2.28;;
34296;SDS011;20564;42.902;25.336;2023-05-27T15:14:12;5.53;;;2.67;;